createdAt,value
2023-03-08T00:00:35.574Z,12.90
2023-03-08T00:03:19.621Z,10.00
2023-03-08T00:05:51.866Z,13.00
2023-03-08T00:08:23.993Z,12.30
2023-03-08T00:10:56.125Z,12.20
2023-03-08T00:13:28.348Z,14.20
2023-03-08T00:16:03.950Z,14.00
2023-03-08T00:18:36.931Z,13.50
2023-03-08T00:21:11.793Z,12.70
2023-03-08T00:23:45.131Z,11.80
2023-03-08T00:26:17.317Z,12.90
2023-03-08T00:28:49.920Z,12.30
2023-03-08T00:31:22.252Z,12.50
2023-03-08T00:33:56.539Z,15.90
2023-03-08T00:36:28.744Z,11.30
2023-03-08T00:39:00.840Z,12.20
2023-03-08T00:41:32.980Z,12.80
2023-03-08T00:44:05.255Z,13.30
2023-03-08T00:46:37.606Z,13.30
2023-03-08T00:49:10.254Z,13.00
2023-03-08T00:51:42.374Z,11.50
2023-03-08T00:54:15.203Z,10.60
2023-03-08T00:56:47.297Z,10.60
2023-03-08T00:59:19.483Z,11.50
2023-03-08T01:01:51.811Z,10.40
2023-03-08T01:04:24.066Z,12.30
2023-03-08T01:06:56.797Z,13.70
2023-03-08T01:09:28.956Z,13.00
2023-03-08T01:12:01.221Z,17.30
2023-03-08T01:14:33.395Z,11.50
2023-03-08T01:17:05.614Z,13.70
2023-03-08T01:19:37.961Z,11.90
2023-03-08T01:22:10.207Z,13.80
2023-03-08T01:24:45.138Z,11.30
2023-03-08T01:27:17.422Z,10.60
2023-03-08T01:29:49.606Z,11.40
2023-03-08T01:32:22.252Z,12.00
2023-03-08T01:34:54.502Z,12.30
2023-03-08T01:37:26.593Z,15.20
2023-03-08T01:39:58.966Z,14.50
2023-03-08T01:42:31.450Z,16.00
2023-03-08T01:45:05.557Z,13.50
2023-03-08T01:47:38.987Z,10.40
2023-03-08T01:50:20.948Z,10.20
2023-03-08T01:52:56.830Z,8.30
2023-03-08T01:55:29.047Z,9.50
2023-03-08T01:58:01.269Z,9.10
2023-03-08T02:00:34.004Z,7.40
2023-03-08T02:03:09.783Z,8.30
2023-03-08T02:05:44.798Z,8.90
2023-03-08T02:08:21.745Z,7.90
2023-03-08T02:10:54.396Z,10.60
2023-03-08T02:13:27.944Z,9.70
2023-03-08T02:16:03.935Z,9.00
2023-03-08T02:18:36.442Z,9.20
2023-03-08T02:21:08.605Z,10.40
2023-03-08T02:23:40.748Z,13.80
2023-03-08T02:26:12.917Z,8.10
2023-03-08T02:28:45.650Z,9.70
2023-03-08T02:31:18.798Z,8.70
2023-03-08T02:33:50.892Z,8.30
2023-03-08T02:36:23.009Z,9.80
2023-03-08T02:38:55.309Z,10.40
2023-03-08T02:41:27.623Z,8.90
2023-03-08T02:43:59.839Z,10.00
2023-03-08T02:46:33.078Z,8.10
2023-03-08T02:49:05.302Z,10.40
2023-03-08T02:51:37.444Z,8.20
2023-03-08T02:54:09.690Z,9.20
2023-03-08T02:56:42.033Z,7.60
2023-03-08T02:59:14.812Z,7.70
2023-03-08T03:01:48.930Z,7.70
2023-03-08T03:04:21.035Z,8.60
2023-03-08T03:06:53.265Z,8.70
2023-03-08T03:09:25.903Z,10.10
2023-03-08T03:11:58.062Z,8.90
2023-03-08T03:14:31.304Z,9.90
2023-03-08T03:17:04.009Z,10.30
2023-03-08T03:19:36.432Z,9.20
2023-03-08T03:22:08.701Z,10.10
2023-03-08T03:24:41.022Z,8.00
2023-03-08T03:27:13.119Z,7.40
2023-03-08T03:29:45.544Z,7.20
2023-03-08T03:32:20.883Z,6.60
2023-03-08T03:34:53.509Z,6.70
2023-03-08T03:37:26.393Z,6.50
2023-03-08T03:39:58.693Z,6.80
2023-03-08T03:42:31.115Z,7.20
2023-03-08T03:45:12.672Z,6.50
2023-03-08T03:47:45.095Z,6.90
2023-03-08T03:50:17.642Z,6.20
2023-03-08T03:52:57.406Z,10.20
2023-03-08T03:55:29.932Z,10.60
2023-03-08T03:58:02.539Z,7.70
2023-03-08T04:00:36.410Z,8.30
2023-03-08T04:03:25.981Z,7.50
2023-03-08T04:06:08.385Z,7.20
2023-03-08T04:08:42.886Z,9.20
2023-03-08T04:11:19.227Z,10.60
2023-03-08T04:13:52.312Z,9.00
2023-03-08T04:16:29.618Z,8.00
2023-03-08T04:19:04.743Z,10.00
2023-03-08T04:21:37.808Z,10.70
2023-03-08T04:24:11.542Z,10.60
2023-03-08T04:26:43.959Z,14.50
2023-03-08T04:29:17.917Z,12.30
2023-03-08T04:31:50.079Z,11.60
2023-03-08T04:34:23.918Z,12.70
2023-03-08T04:36:56.269Z,6.10
2023-03-08T04:39:28.863Z,5.80
2023-03-08T04:42:01.445Z,6.30
2023-03-08T04:47:08.315Z,9.60
2023-03-08T04:49:48.524Z,6.00
2023-03-08T04:52:20.995Z,11.10
2023-03-08T04:54:55.340Z,81.80
2023-03-08T04:57:30.530Z,26.80
2023-03-08T05:00:06.062Z,11.30
2023-03-08T05:02:41.527Z,10.10
2023-03-08T05:05:17.877Z,6.90
2023-03-08T05:07:50.316Z,9.40
2023-03-08T05:10:22.685Z,9.40
2023-03-08T05:12:55.571Z,7.80
2023-03-08T05:15:28.392Z,10.20
2023-03-08T05:18:00.599Z,6.40
2023-03-08T05:20:33.133Z,5.30
2023-03-08T05:23:05.404Z,5.40
2023-03-08T05:25:45.450Z,4.20
2023-03-08T05:28:17.834Z,3.30
2023-03-08T05:30:50.733Z,4.00
2023-03-08T05:33:23.359Z,4.70
2023-03-08T05:35:58.880Z,4.70
2023-03-08T05:38:32.158Z,6.10
2023-03-08T05:41:06.965Z,4.30
2023-03-08T05:43:39.301Z,4.10
2023-03-08T05:46:15.880Z,3.40
2023-03-08T05:48:48.879Z,6.50
2023-03-08T05:51:22.461Z,6.00
2023-03-08T05:53:54.682Z,3.70
2023-03-08T05:56:27.721Z,4.70
2023-03-08T05:59:10.081Z,3.70
2023-03-08T06:01:42.525Z,3.30
2023-03-08T06:04:22.598Z,3.80
2023-03-08T06:06:55.206Z,4.50
2023-03-08T06:09:29.319Z,4.60
2023-03-08T06:12:01.852Z,5.20
2023-03-08T06:14:34.859Z,6.50
2023-03-08T06:17:07.488Z,3.80
2023-03-08T06:19:41.227Z,5.20
2023-03-08T06:22:13.540Z,5.70
2023-03-08T06:24:49.775Z,31.20
2023-03-08T06:27:25.708Z,29.80
2023-03-08T06:29:58.436Z,32.70
2023-03-08T06:32:30.605Z,69.10
2023-03-08T06:35:03.017Z,101.40
2023-03-08T06:37:37.189Z,71.50
2023-03-08T06:40:14.013Z,36.30
2023-03-08T06:42:47.115Z,82.00
2023-03-08T06:45:20.828Z,325.00
2023-03-08T06:47:52.999Z,427.10
2023-03-08T06:50:25.810Z,175.00
2023-03-08T06:52:58.842Z,70.00
2023-03-08T06:55:43.349Z,123.90
2023-03-08T06:58:15.523Z,279.90
2023-03-08T07:00:47.954Z,117.50
2023-03-08T07:03:20.086Z,77.90
2023-03-08T07:05:52.319Z,47.40
2023-03-08T07:08:24.521Z,29.10
2023-03-08T07:10:56.972Z,25.30
2023-03-08T07:13:29.985Z,17.60
2023-03-08T07:16:06.361Z,9.40
2023-03-08T07:18:38.827Z,108.90
2023-03-08T07:21:12.359Z,605.50
2023-03-08T07:23:44.447Z,346.00
2023-03-08T07:26:16.659Z,57.90
2023-03-08T07:28:51.569Z,27.80
2023-03-08T07:31:23.716Z,16.60
2023-03-08T07:33:55.928Z,8.90
2023-03-08T07:36:28.177Z,8.50
2023-03-08T07:39:00.238Z,9.50
2023-03-08T07:41:33.273Z,11.90
2023-03-08T07:44:05.572Z,10.00
2023-03-08T07:46:37.777Z,6.90
2023-03-08T07:49:11.836Z,14.20
2023-03-08T07:51:43.951Z,9.80
2023-03-08T07:54:16.112Z,10.80
2023-03-08T07:56:48.541Z,12.80
2023-03-08T07:59:21.103Z,8.80
2023-03-08T08:01:53.225Z,7.10
2023-03-08T08:04:25.502Z,6.50
2023-03-08T08:06:59.399Z,6.80
2023-03-08T08:09:31.602Z,6.50
2023-03-08T08:12:03.945Z,6.20
2023-03-08T08:14:36.126Z,7.00
2023-03-08T08:17:08.507Z,6.20
2023-03-08T08:19:40.985Z,4.00
2023-03-08T08:22:13.326Z,5.80
2023-03-08T08:24:45.544Z,4.50
2023-03-08T08:27:18.006Z,7.10
2023-03-08T08:29:50.989Z,4.20
2023-03-08T08:32:23.109Z,3.70
2023-03-08T08:34:55.291Z,4.60
2023-03-08T08:37:27.512Z,5.80
2023-03-08T08:39:59.812Z,5.40
2023-03-08T08:42:32.032Z,5.30
2023-03-08T08:45:04.347Z,18.50
2023-03-08T08:47:36.563Z,10.60
2023-03-08T08:50:13.976Z,8.20
2023-03-08T08:52:46.318Z,6.60
2023-03-08T08:55:18.784Z,7.30
2023-03-08T08:57:50.985Z,10.40
2023-03-08T09:00:23.730Z,7.60
2023-03-08T09:02:55.912Z,4.90
2023-03-08T09:05:28.439Z,5.40
2023-03-08T09:08:02.614Z,4.00
2023-03-08T09:10:36.453Z,5.00
2023-03-08T09:13:09.159Z,6.30
2023-03-08T09:15:41.271Z,6.60
2023-03-08T09:18:13.494Z,4.40
2023-03-08T09:20:45.709Z,8.60
2023-03-08T09:23:17.886Z,7.30
2023-03-08T09:25:58.253Z,5.50
2023-03-08T09:28:30.406Z,6.80
2023-03-08T09:31:09.977Z,5.90
2023-03-08T09:33:42.793Z,7.40
2023-03-08T09:36:16.563Z,6.80
2023-03-08T09:38:50.712Z,5.80
2023-03-08T09:41:42.996Z,6.50
2023-03-08T09:44:34.866Z,5.10
2023-03-08T09:47:14.333Z,7.80
2023-03-08T09:49:49.448Z,7.70
2023-03-08T09:52:31.022Z,6.60
2023-03-08T09:55:05.405Z,7.10
2023-03-08T09:57:42.294Z,7.80
2023-03-08T10:00:22.920Z,6.10
2023-03-08T10:03:08.005Z,7.10
2023-03-08T10:05:47.008Z,6.20
2023-03-08T10:08:25.110Z,5.80
2023-03-08T10:11:01.709Z,6.80
2023-03-08T10:13:36.414Z,5.40
2023-03-08T10:16:16.457Z,5.90
2023-03-08T10:18:52.678Z,4.70
2023-03-08T10:21:27.201Z,5.80
2023-03-08T10:24:05.967Z,5.30
2023-03-08T10:26:38.061Z,5.20
2023-03-08T10:29:12.212Z,5.30
2023-03-08T10:31:47.246Z,5.50
2023-03-08T10:34:21.431Z,4.80
2023-03-08T10:36:59.077Z,7.30
2023-03-08T10:39:31.731Z,4.60
2023-03-08T10:42:14.692Z,6.00
2023-03-08T10:44:53.449Z,4.90
2023-03-08T10:47:29.346Z,6.10
2023-03-08T10:50:16.558Z,4.90
2023-03-08T10:52:50.881Z,5.00
2023-03-08T10:55:24.640Z,4.20
2023-03-08T10:57:58.691Z,7.10
2023-03-08T11:00:37.004Z,9.30
2023-03-08T11:03:18.205Z,4.30
2023-03-08T11:06:03.156Z,4.40
2023-03-08T11:08:39.031Z,4.10
2023-03-08T11:11:13.623Z,5.50
2023-03-08T11:13:47.188Z,6.10
2023-03-08T11:16:38.082Z,6.00
2023-03-08T11:19:22.101Z,6.10
2023-03-08T11:22:05.187Z,6.80
2023-03-08T11:24:53.870Z,4.20
2023-03-08T11:27:38.844Z,5.00
2023-03-08T11:30:24.017Z,4.30
2023-03-08T11:33:09.033Z,3.80
2023-03-08T11:35:53.148Z,4.00
2023-03-08T11:38:28.140Z,5.60
2023-03-08T11:43:51.777Z,5.50
2023-03-08T11:46:27.529Z,6.10
2023-03-08T11:49:24.196Z,5.70
2023-03-08T11:52:04.679Z,4.80
2023-03-08T11:54:49.618Z,5.80
2023-03-08T11:57:22.197Z,23.80
2023-03-08T11:59:57.446Z,7.50
2023-03-08T12:02:32.057Z,74.50
2023-03-08T12:05:11.607Z,7.60
2023-03-08T12:07:48.824Z,5.30
2023-03-08T12:10:25.291Z,5.60
2023-03-08T12:13:01.121Z,4.80
2023-03-08T12:15:38.820Z,5.70
2023-03-08T12:18:17.557Z,4.80
2023-03-08T12:20:51.671Z,6.50
2023-03-08T12:23:33.501Z,6.90
2023-03-08T12:26:10.523Z,5.00
2023-03-08T12:28:46.950Z,9.80
2023-03-08T12:31:29.783Z,6.30
2023-03-08T12:34:12.606Z,7.30
2023-03-08T12:36:46.117Z,10.30
2023-03-08T12:39:31.582Z,4.80
2023-03-08T12:42:16.086Z,5.20
2023-03-08T12:44:48.283Z,5.10
2023-03-08T12:47:24.133Z,7.70
2023-03-08T12:49:57.967Z,3.70
2023-03-08T12:52:35.517Z,3.90
2023-03-08T12:55:19.613Z,4.40
2023-03-08T12:57:55.166Z,5.50
2023-03-08T13:00:33.180Z,4.80
2023-03-08T13:03:08.126Z,6.10
2023-03-08T13:08:23.938Z,6.40
2023-03-08T13:11:11.598Z,5.80
2023-03-08T13:13:50.247Z,6.20
2023-03-08T13:16:35.595Z,5.70
2023-03-08T13:22:00.366Z,4.90
2023-03-08T13:24:42.764Z,4.70
2023-03-08T13:27:38.532Z,3.90
2023-03-08T13:32:53.379Z,4.90
2023-03-08T13:35:25.902Z,5.90
2023-03-08T13:38:00.198Z,5.30
2023-03-08T13:40:33.507Z,7.00
2023-03-08T13:43:08.739Z,4.50
2023-03-08T13:45:41.742Z,5.60
2023-03-08T13:48:15.905Z,4.90
2023-03-08T13:50:51.232Z,6.50
2023-03-08T13:53:28.334Z,5.10
2023-03-08T13:56:03.499Z,5.10
2023-03-08T13:58:39.425Z,7.20
2023-03-08T14:01:17.484Z,5.10
2023-03-08T14:03:50.698Z,4.00
2023-03-08T14:06:29.810Z,5.60
2023-03-08T14:09:03.895Z,4.90
2023-03-08T14:11:38.534Z,6.70
2023-03-08T14:14:20.510Z,13.50
2023-03-08T14:16:55.221Z,5.50
2023-03-08T14:19:29.899Z,5.00
2023-03-08T14:22:04.194Z,6.20
2023-03-08T14:24:38.224Z,6.40
2023-03-08T14:27:38.029Z,7.30
2023-03-08T14:30:19.352Z,7.00
2023-03-08T14:33:04.496Z,7.30
2023-03-08T14:35:39.179Z,6.40
2023-03-08T14:38:23.600Z,5.10
2023-03-08T14:40:56.330Z,5.30
2023-03-08T14:43:29.221Z,6.20
2023-03-08T14:46:03.902Z,11.60
2023-03-08T14:48:37.423Z,7.30
2023-03-08T14:51:29.715Z,10.20
2023-03-08T14:54:03.871Z,8.90
2023-03-08T14:56:36.464Z,9.20
2023-03-08T14:59:18.690Z,8.20
2023-03-08T15:01:58.971Z,18.80
2023-03-08T15:04:31.350Z,6.40
2023-03-08T15:07:04.634Z,5.60
2023-03-08T15:09:37.646Z,9.60
2023-03-08T15:12:12.324Z,12.00
2023-03-08T15:14:44.799Z,6.00
2023-03-08T15:17:16.967Z,6.60
2023-03-08T15:19:49.413Z,7.30
2023-03-08T15:22:21.606Z,6.20
2023-03-08T15:24:53.831Z,6.90
2023-03-08T15:27:26.021Z,7.90
2023-03-08T15:29:58.212Z,7.00
2023-03-08T15:32:30.301Z,9.20
2023-03-08T15:35:02.501Z,7.40
2023-03-08T15:37:34.633Z,40.50
2023-03-08T15:40:12.405Z,101.70
2023-03-08T15:42:44.700Z,203.60
2023-03-08T15:45:17.411Z,27.30
2023-03-08T15:48:00.388Z,45.70
2023-03-08T15:50:34.710Z,154.50
2023-03-08T15:53:07.459Z,136.20
2023-03-08T15:55:41.225Z,45.40
2023-03-08T15:58:13.385Z,82.30
2023-03-08T16:00:45.580Z,95.60
2023-03-08T16:03:26.099Z,534.30
2023-03-08T16:05:58.738Z,387.80
2023-03-08T16:08:31.547Z,237.40
2023-03-08T16:11:07.003Z,158.30
2023-03-08T16:13:39.248Z,221.00
2023-03-08T16:16:11.760Z,212.30
2023-03-08T16:18:44.763Z,228.30
2023-03-08T16:21:17.239Z,261.30
2023-03-08T16:23:49.460Z,98.20
2023-03-08T16:26:22.044Z,51.70
2023-03-08T16:28:54.245Z,55.40
2023-03-08T16:31:26.450Z,80.10
2023-03-08T16:33:58.752Z,145.20
2023-03-08T16:36:30.970Z,109.50
2023-03-08T16:39:04.164Z,122.70
2023-03-08T16:41:38.466Z,190.20
2023-03-08T16:44:21.557Z,182.30
2023-03-08T16:46:54.569Z,142.80
2023-03-08T16:49:28.702Z,120.60
2023-03-08T16:52:01.318Z,91.00
2023-03-08T16:54:33.703Z,92.00
2023-03-08T16:57:18.313Z,94.80
2023-03-08T16:59:51.855Z,81.30
2023-03-08T17:02:24.849Z,98.20
2023-03-08T17:04:57.465Z,129.70
2023-03-08T17:07:30.393Z,155.80
2023-03-08T17:10:02.668Z,183.90
2023-03-08T17:12:35.151Z,185.10
2023-03-08T17:15:10.969Z,172.80
2023-03-08T17:17:43.431Z,159.10
2023-03-08T17:20:17.736Z,147.00
2023-03-08T17:22:50.315Z,162.20
2023-03-08T17:25:22.976Z,159.00
2023-03-08T17:27:55.574Z,166.60
2023-03-08T17:30:31.783Z,184.90
2023-03-08T17:33:04.131Z,205.20
2023-03-08T17:35:39.695Z,201.40
2023-03-08T17:38:12.283Z,199.80
2023-03-08T17:40:46.556Z,199.70
2023-03-08T17:43:20.176Z,211.90
2023-03-08T17:46:01.139Z,219.70
2023-03-08T17:48:34.429Z,225.80
2023-03-08T17:51:09.416Z,225.90
2023-03-08T17:53:42.344Z,238.20
2023-03-08T17:56:16.797Z,323.70
2023-03-08T17:58:50.469Z,296.30
2023-03-08T18:01:24.663Z,250.80
2023-03-08T18:03:58.066Z,262.60
2023-03-08T18:06:33.481Z,258.70
2023-03-08T18:09:08.640Z,253.90
2023-03-08T18:11:41.597Z,288.40
2023-03-08T18:14:15.973Z,309.80
2023-03-08T18:16:48.345Z,317.90
2023-03-08T18:19:20.728Z,304.20
2023-03-08T18:21:55.098Z,271.00
2023-03-08T18:24:28.621Z,213.90
2023-03-08T18:27:01.703Z,207.90
2023-03-08T18:29:34.686Z,205.80
2023-03-08T18:32:08.454Z,210.30
2023-03-08T18:34:41.508Z,215.10
2023-03-08T18:37:14.008Z,249.20
2023-03-08T18:39:46.536Z,308.10
2023-03-08T18:42:19.033Z,320.70
2023-03-08T18:44:51.738Z,310.80
2023-03-08T18:47:24.478Z,253.70
2023-03-08T18:49:56.815Z,163.00
2023-03-08T18:52:30.913Z,102.50
2023-03-08T18:55:03.311Z,72.90
2023-03-08T18:57:35.626Z,79.00
2023-03-08T19:00:12.190Z,115.70
2023-03-08T19:02:46.287Z,119.00
2023-03-08T19:05:19.218Z,121.30
2023-03-08T19:07:54.606Z,101.80
2023-03-08T19:12:58.006Z,68.00
2023-03-08T19:15:30.355Z,74.50
2023-03-08T19:18:02.740Z,47.60
2023-03-08T19:20:38.771Z,51.40
2023-03-08T19:23:13.091Z,45.50
2023-03-08T19:25:59.285Z,145.00
2023-03-08T19:28:31.597Z,207.50
2023-03-08T19:31:04.512Z,291.20
2023-03-08T19:33:36.884Z,311.40
2023-03-08T19:36:11.797Z,350.00
2023-03-08T19:38:44.012Z,287.70
2023-03-08T19:41:16.271Z,206.10
2023-03-08T19:43:49.453Z,217.70
2023-03-08T19:46:21.699Z,215.70
2023-03-08T19:48:54.096Z,190.00
2023-03-08T19:51:26.368Z,178.60
2023-03-08T19:53:58.781Z,105.00
2023-03-08T19:56:31.582Z,110.20
2023-03-08T19:59:04.188Z,88.50
2023-03-08T20:01:37.358Z,104.20
2023-03-08T20:04:11.018Z,103.60
2023-03-08T20:09:21.876Z,294.90
2023-03-08T20:11:58.760Z,212.30
2023-03-08T20:14:31.523Z,158.20
2023-03-08T20:17:05.443Z,174.80
2023-03-08T20:19:38.159Z,154.30
2023-03-08T20:22:10.891Z,135.00
2023-03-08T20:24:43.208Z,135.50
2023-03-08T20:27:15.489Z,251.10
2023-03-08T20:29:48.089Z,1309.40
2023-03-08T20:32:20.344Z,390.90
2023-03-08T20:34:52.620Z,817.60
2023-03-08T20:37:25.100Z,282.10
2023-03-08T20:39:58.992Z,488.80
2023-03-08T20:42:34.799Z,549.00
2023-03-08T20:45:10.506Z,300.20
2023-03-08T20:47:42.854Z,165.20
2023-03-08T20:50:15.943Z,114.90
2023-03-08T20:52:48.720Z,195.30
2023-03-08T20:55:21.701Z,229.60
2023-03-08T20:57:55.179Z,104.50
2023-03-08T21:00:31.082Z,61.00
2023-03-08T21:03:03.387Z,54.70
2023-03-08T21:05:37.494Z,56.70
2023-03-08T21:08:10.108Z,64.30
2023-03-08T21:10:42.807Z,52.90
2023-03-08T21:13:16.137Z,66.90
2023-03-08T21:15:48.702Z,55.90
2023-03-08T21:18:21.118Z,89.10
2023-03-08T21:20:54.579Z,46.60
2023-03-08T21:23:27.184Z,42.10
2023-03-08T21:26:05.472Z,45.00
2023-03-08T21:28:37.780Z,42.10
2023-03-08T21:31:12.597Z,59.20
2023-03-08T21:33:45.520Z,84.10
2023-03-08T21:36:18.461Z,44.10
2023-03-08T21:38:56.601Z,43.80
2023-03-08T21:41:30.857Z,65.10
2023-03-08T21:44:06.148Z,87.60
2023-03-08T21:46:40.723Z,80.50
2023-03-08T21:49:18.152Z,72.60
2023-03-08T21:51:51.152Z,167.30
2023-03-08T21:54:24.482Z,292.70
2023-03-08T21:56:57.700Z,1126.50
2023-03-08T21:59:30.516Z,684.70
2023-03-08T22:02:03.382Z,485.70
2023-03-08T22:04:35.814Z,151.10
2023-03-08T22:07:08.159Z,46.30
2023-03-08T22:09:40.964Z,53.20
2023-03-08T22:12:14.980Z,201.10
2023-03-08T22:14:47.344Z,194.40
2023-03-08T22:17:19.869Z,103.60
2023-03-08T22:19:53.891Z,132.10
2023-03-08T22:22:26.773Z,404.40
2023-03-08T22:24:59.740Z,297.00
2023-03-08T22:27:32.427Z,156.10
2023-03-08T22:30:08.237Z,85.80
2023-03-08T22:32:42.052Z,82.50
2023-03-08T22:35:15.621Z,94.90
2023-03-08T22:37:48.659Z,82.00
2023-03-08T22:40:21.380Z,83.00
2023-03-08T22:42:53.683Z,68.10
2023-03-08T22:45:26.125Z,74.10
2023-03-08T22:48:01.256Z,83.00
2023-03-08T22:50:33.944Z,111.80
2023-03-08T22:53:06.468Z,118.90
2023-03-08T22:55:39.178Z,91.80
2023-03-08T22:58:11.520Z,59.90
2023-03-08T23:00:43.860Z,43.10
2023-03-08T23:03:16.691Z,33.50
2023-03-08T23:05:49.093Z,39.80
2023-03-08T23:08:23.873Z,33.00
2023-03-08T23:13:33.773Z,37.90
2023-03-08T23:16:09.247Z,32.30
2023-03-08T23:18:42.688Z,29.10
2023-03-08T23:21:16.772Z,29.10
2023-03-08T23:23:50.276Z,26.60
2023-03-08T23:26:27.241Z,26.20
2023-03-08T23:29:03.428Z,27.70
2023-03-08T23:31:40.773Z,28.40
2023-03-08T23:34:13.913Z,29.10
2023-03-08T23:36:46.737Z,29.60
2023-03-08T23:39:20.206Z,40.30
2023-03-08T23:41:52.822Z,36.20
2023-03-08T23:44:25.214Z,30.00
2023-03-08T23:46:57.508Z,28.10
2023-03-08T23:49:30.190Z,25.50
2023-03-08T23:52:02.684Z,22.90
2023-03-08T23:54:35.130Z,21.50
2023-03-08T23:57:07.669Z,22.70
2023-03-08T23:59:40.486Z,24.10
